LIEOLIEA

Guest
Details From LIEO - OLBIA COSTA SMERALDA
To LIEA - ALGHERO
Flight Number -
Tags generated
Created
Modified
Stats Distance 58 nm / 108 km
Max Altitude 300 ft / 91 m
Waypoints 3
Social Downloads 0
Likes 0
Share VATSIM

Download

Looking for another format? Having issues loading an existing format? Contact us
Advertisement - Login to hide

Notes

Basic altitude profile: - Ascent Rate: 2500ft/min - Ascent Speed: 250kts - Cruise Altitude: 11000ft - Cruise Speed: 340kts - Descent Rate: 1500ft/min - Descent Speed: 240kts Options: - Use NATs: yes - Use PACOTS: yes - Use low airways: yes - Use high airways: yes

Route

LIEO SME LIEA

ID Type Via Altitude Latitude Longitude Leg Dist Tot Dist Heading (true) Name
O LIEO APT - 0 ft / 0 m 40.89866˚ 9.51763˚ - 0 nm - OLBIA COSTA SMERALDA
SME VOR - 300 ft / 91 m 40.88993˚ 9.50115˚ 0 nm 0 nm 235° / 235° SMERALDA VOR-DME
O LIEA APT - 0 ft / 0 m 40.63213˚ 8.29077˚ 57 nm 58 nm 255° / 254° ALGHERO

Altitude Profile

Advertisement - Login to hide

LIEO

Details ICAO LIEO (OLB)
Name OLBIA COSTA SMERALDA
Region Italy
Timezone Europe/Rome (UTC+2.0)
Stats Elevation 37 ft / 11 m (AMSL)
Location 40.898661° 9.517629°
Runways 1
Magnetic Variation 2.487° E

METAR

Not found

TAF

TAF LIEO 201700Z 2018/2118 VRB05KT 9999 SCT030 TEMPO 2021/2106 RA BECMG 2109/2111 07010KT TEMPO 2109/2116 4000 TSRA

Decode

Departure Runways

ID Width Length Bearing (true) Bearing (mag) Surface Threshold Offset Overrun Length
06 148 ft / 45 m 8,013 ft / 2,442 m 55.30° 52.81° Asphalt 805 ft / 245 m 180 ft / 55 m
24 148 ft / 45 m 8,013 ft / 2,442 m 235.31° 232.82° Asphalt 495 ft / 151 m 180 ft / 55 m

LIEA

Details ICAO LIEA (AHO)
Name ALGHERO
Region Italy
Timezone Europe/Rome (UTC+2.0)
Stats Elevation 87 ft / 27 m (AMSL)
Location 40.632132° 8.290774°
Runways 1
Magnetic Variation 2.239° E

METAR

LIEA 201750Z 02003KT 350V060 CAVOK 21/16 Q1011

Decode

TAF

TAF LIEA 201700Z 2018/2118 VRB05KT 9999 SCT030 TEMPO 2018/2103 RA BECMG 2109/2111 22010KT TEMPO 2109/2115 4000 TSRA

Decode

Destination Runways

ID Width Length Bearing (true) Bearing (mag) Surface Threshold Offset Overrun Length
02 148 ft / 45 m 9,854 ft / 3,004 m 24.51° 22.27° Asphalt 0 ft / 0 m 0 ft / 0 m
20 148 ft / 45 m 9,854 ft / 3,004 m 204.52° 202.28° Asphalt 0 ft / 0 m 0 ft / 0 m

Approach Navaids

Runway Type Ident Frequency Range Bearing (true) Bearing (mag) Slope Elevation
20 Localiser IALF 110.15 MHz 18 nm / 33 km 204.47° 202.23° - 72 ft / 22 m (AMSL)
20 Glidescope IALF 110.15 MHz 10 nm / 19 km 204.51° 202.27° 3.00° 133 ft / 41 m (AMSL)
20 DME IALF 110.15 MHz 25 nm / 46 km - - - 133 ft / 41 m (AMSL)

Popular Alternatives